Antioch, Illinois
Current Conditions -  °F | °C
As of 7:53 PM on Saturday 22 Nov 2014 (Local Time) from KENW Reporting Station
Haze Haze  
Wind Chill: 45°   Ceiling: 4600
Heat Index: 49°   Visibility: 6mi
Dew Point: 46°   Wind: 10mph
Humidity: 90%   Direction: 200°SSW
Pressure: 29.82"   Gusts: NA
Location:  42.48°N, 88.1°W
Report Text: KENW 230153Z 20009KT 6SM BR FEW019 BKN046 09/08 A2982 RMK AO2 SLP104 T00940078
Loading
Personal Weather Stations






























Interactive Weather Map New forecast layout! Learn more

10-Day Weather Forecast

Advertisements
Track Severe Weather on mobile